sensor_id;sensor_type;location;lat;lon;timestamp;pressure;altitude;pressure_sealevel;temperature;humidity
19128;BME280;9696;53.686;10.094;2023-02-01T00:01:47;100871.03;;;4.10;100.00
19128;BME280;9696;53.686;10.094;2023-02-01T00:04:16;100875.56;;;4.07;100.00
19128;BME280;9696;53.686;10.094;2023-02-01T00:06:47;100859.84;;;4.24;100.00
19128;BME280;9696;53.686;10.094;2023-02-01T00:09:16;100852.56;;;4.31;100.00
19128;BME280;9696;53.686;10.094;2023-02-01T00:11:45;100850.81;;;4.15;100.00
19128;BME280;9696;53.686;10.094;2023-02-01T00:14:14;100850.09;;;4.13;100.00
19128;BME280;9696;53.686;10.094;2023-02-01T00:16:44;100839.25;;;4.21;100.00
19128;BME280;9696;53.686;10.094;2023-02-01T00:19:14;100843.34;;;4.25;100.00
19128;BME280;9696;53.686;10.094;2023-02-01T00:21:43;100846.53;;;4.30;100.00
19128;BME280;9696;53.686;10.094;2023-02-01T00:24:14;100854.66;;;4.24;100.00
19128;BME280;9696;53.686;10.094;2023-02-01T00:26:45;100846.59;;;4.43;100.00
19128;BME280;9696;53.686;10.094;2023-02-01T00:29:16;100858.09;;;4.39;100.00
19128;BME280;9696;53.686;10.094;2023-02-01T00:31:45;100847.44;;;4.43;100.00
19128;BME280;9696;53.686;10.094;2023-02-01T00:34:16;100845.81;;;4.42;100.00
19128;BME280;9696;53.686;10.094;2023-02-01T00:36:46;100849.00;;;4.32;100.00
19128;BME280;9696;53.686;10.094;2023-02-01T00:39:16;100844.84;;;4.43;100.00
19128;BME280;9696;53.686;10.094;2023-02-01T00:41:45;100852.00;;;4.40;100.00
19128;BME280;9696;53.686;10.094;2023-02-01T00:44:14;100846.19;;;4.64;100.00
19128;BME280;9696;53.686;10.094;2023-02-01T00:46:44;100829.69;;;4.65;100.00
19128;BME280;9696;53.686;10.094;2023-02-01T00:49:13;100833.66;;;4.71;100.00
19128;BME280;9696;53.686;10.094;2023-02-01T00:51:42;100827.34;;;4.61;100.00
19128;BME280;9696;53.686;10.094;2023-02-01T00:54:11;100832.06;;;4.83;100.00
19128;BME280;9696;53.686;10.094;2023-02-01T00:56:41;100835.06;;;4.77;100.00
19128;BME280;9696;53.686;10.094;2023-02-01T00:59:11;100839.03;;;4.68;100.00
19128;BME280;9696;53.686;10.094;2023-02-01T01:01:40;100835.97;;;4.75;100.00
19128;BME280;9696;53.686;10.094;2023-02-01T01:04:10;100840.25;;;4.77;100.00
19128;BME280;9696;53.686;10.094;2023-02-01T01:06:39;100842.09;;;4.74;100.00
19128;BME280;9696;53.686;10.094;2023-02-01T01:09:09;100838.22;;;4.82;100.00
19128;BME280;9696;53.686;10.094;2023-02-01T01:11:38;100844.91;;;4.86;100.00
19128;BME280;9696;53.686;10.094;2023-02-01T01:14:09;100831.41;;;4.79;100.00
19128;BME280;9696;53.686;10.094;2023-02-01T01:16:39;100819.06;;;4.83;100.00
19128;BME280;9696;53.686;10.094;2023-02-01T01:19:08;100821.31;;;4.89;100.00
19128;BME280;9696;53.686;10.094;2023-02-01T01:21:37;100829.91;;;5.03;100.00
19128;BME280;9696;53.686;10.094;2023-02-01T01:24:07;100819.63;;;4.88;100.00
19128;BME280;9696;53.686;10.094;2023-02-01T01:26:36;100826.88;;;4.83;100.00
19128;BME280;9696;53.686;10.094;2023-02-01T01:29:05;100819.16;;;4.95;100.00
19128;BME280;9696;53.686;10.094;2023-02-01T01:31:35;100816.00;;;4.90;100.00
19128;BME280;9696;53.686;10.094;2023-02-01T01:34:05;100808.97;;;4.92;100.00
19128;BME280;9696;53.686;10.094;2023-02-01T01:36:34;100801.84;;;4.82;100.00
19128;BME280;9696;53.686;10.094;2023-02-01T01:39:03;100783.59;;;4.96;100.00
19128;BME280;9696;53.686;10.094;2023-02-01T01:41:33;100785.72;;;5.03;100.00
19128;BME280;9696;53.686;10.094;2023-02-01T01:47:23;100792.59;;;5.04;100.00
19128;BME280;9696;53.686;10.094;2023-02-01T01:49:52;100785.34;;;5.09;100.00
19128;BME280;9696;53.686;10.094;2023-02-01T01:52:21;100773.78;;;4.87;100.00
19128;BME280;9696;53.686;10.094;2023-02-01T01:54:52;100777.78;;;4.92;100.00
19128;BME280;9696;53.686;10.094;2023-02-01T01:57:26;100782.03;;;4.93;100.00
19128;BME280;9696;53.686;10.094;2023-02-01T01:59:59;100777.00;;;5.04;100.00
19128;BME280;9696;53.686;10.094;2023-02-01T02:02:42;100768.38;;;5.04;100.00
19128;BME280;9696;53.686;10.094;2023-02-01T02:05:15;100774.34;;;5.18;100.00
19128;BME280;9696;53.686;10.094;2023-02-01T02:07:48;100768.16;;;5.21;100.00
19128;BME280;9696;53.686;10.094;2023-02-01T02:10:17;100769.00;;;5.07;100.00
19128;BME280;9696;53.686;10.094;2023-02-01T02:12:48;100769.28;;;5.03;100.00
19128;BME280;9696;53.686;10.094;2023-02-01T02:15:18;100758.97;;;5.15;100.00
19128;BME280;9696;53.686;10.094;2023-02-01T02:17:55;100758.41;;;5.10;100.00
19128;BME280;9696;53.686;10.094;2023-02-01T02:20:51;100742.53;;;5.15;100.00
19128;BME280;9696;53.686;10.094;2023-02-01T02:23:55;100744.84;;;5.19;100.00
19128;BME280;9696;53.686;10.094;2023-02-01T02:26:55;100741.69;;;5.14;100.00
19128;BME280;9696;53.686;10.094;2023-02-01T02:29:46;100735.81;;;5.25;100.00
19128;BME280;9696;53.686;10.094;2023-02-01T02:32:44;100728.69;;;5.14;100.00
19128;BME280;9696;53.686;10.094;2023-02-01T02:35:26;100729.81;;;5.10;100.00
19128;BME280;9696;53.686;10.094;2023-02-01T02:38:02;100737.88;;;5.20;100.00
19128;BME280;9696;53.686;10.094;2023-02-01T02:40:41;100733.59;;;5.19;100.00
19128;BME280;9696;53.686;10.094;2023-02-01T02:43:15;100721.13;;;5.24;100.00
19128;BME280;9696;53.686;10.094;2023-02-01T02:46:14;100742.94;;;5.09;100.00
19128;BME280;9696;53.686;10.094;2023-02-01T02:49:09;100732.34;;;4.98;100.00
19128;BME280;9696;53.686;10.094;2023-02-01T02:51:45;100745.03;;;4.90;100.00
19128;BME280;9696;53.686;10.094;2023-02-01T02:54:37;100724.59;;;4.84;100.00
19128;BME280;9696;53.686;10.094;2023-02-01T02:57:19;100715.41;;;4.78;100.00
19128;BME280;9696;53.686;10.094;2023-02-01T03:00:09;100715.38;;;4.65;100.00
19128;BME280;9696;53.686;10.094;2023-02-01T03:02:56;100721.31;;;4.39;100.00
19128;BME280;9696;53.686;10.094;2023-02-01T03:05:45;100719.84;;;4.21;100.00
19128;BME280;9696;53.686;10.094;2023-02-01T03:08:18;100709.53;;;4.19;100.00
19128;BME280;9696;53.686;10.094;2023-02-01T03:10:57;100723.09;;;4.24;100.00
19128;BME280;9696;53.686;10.094;2023-02-01T03:13:35;100715.75;;;4.17;100.00
19128;BME280;9696;53.686;10.094;2023-02-01T03:16:09;100725.59;;;4.12;100.00
19128;BME280;9696;53.686;10.094;2023-02-01T03:18:49;100728.38;;;4.09;100.00
19128;BME280;9696;53.686;10.094;2023-02-01T03:21:23;100708.34;;;4.11;100.00
19128;BME280;9696;53.686;10.094;2023-02-01T03:23:56;100710.56;;;4.17;100.00
19128;BME280;9696;53.686;10.094;2023-02-01T03:26:28;100695.09;;;4.15;100.00
19128;BME280;9696;53.686;10.094;2023-02-01T03:29:05;100690.53;;;4.19;100.00
19128;BME280;9696;53.686;10.094;2023-02-01T03:31:36;100692.41;;;4.17;100.00
19128;BME280;9696;53.686;10.094;2023-02-01T03:34:05;100697.41;;;4.20;100.00
19128;BME280;9696;53.686;10.094;2023-02-01T03:36:39;100698.25;;;4.20;100.00
19128;BME280;9696;53.686;10.094;2023-02-01T03:39:16;100676.56;;;4.21;100.00
19128;BME280;9696;53.686;10.094;2023-02-01T03:41:50;100669.41;;;4.25;100.00
19128;BME280;9696;53.686;10.094;2023-02-01T03:44:24;100670.88;;;4.29;100.00
19128;BME280;9696;53.686;10.094;2023-02-01T03:46:59;100660.13;;;4.35;100.00
19128;BME280;9696;53.686;10.094;2023-02-01T03:49:35;100665.78;;;4.42;100.00
19128;BME280;9696;53.686;10.094;2023-02-01T03:52:10;100666.22;;;4.48;100.00
19128;BME280;9696;53.686;10.094;2023-02-01T03:54:43;100670.03;;;4.43;100.00
19128;BME280;9696;53.686;10.094;2023-02-01T03:57:14;100671.50;;;4.47;100.00
19128;BME280;9696;53.686;10.094;2023-02-01T03:59:45;100665.50;;;4.46;100.00
19128;BME280;9696;53.686;10.094;2023-02-01T04:02:15;100655.28;;;4.43;100.00
19128;BME280;9696;53.686;10.094;2023-02-01T04:04:44;100667.91;;;4.35;100.00
19128;BME280;9696;53.686;10.094;2023-02-01T04:07:16;100652.44;;;4.34;100.00
19128;BME280;9696;53.686;10.094;2023-02-01T04:09:47;100657.06;;;4.28;100.00
19128;BME280;9696;53.686;10.094;2023-02-01T04:12:16;100654.75;;;4.24;100.00
19128;BME280;9696;53.686;10.094;2023-02-01T04:14:46;100672.84;;;3.97;100.00
19128;BME280;9696;53.686;10.094;2023-02-01T04:17:15;100640.97;;;3.81;100.00
19128;BME280;9696;53.686;10.094;2023-02-01T04:19:44;100651.06;;;3.86;100.00
19128;BME280;9696;53.686;10.094;2023-02-01T04:22:13;100649.78;;;3.78;100.00
19128;BME280;9696;53.686;10.094;2023-02-01T04:24:47;100640.69;;;3.86;100.00
19128;BME280;9696;53.686;10.094;2023-02-01T04:27:16;100624.66;;;3.93;100.00
19128;BME280;9696;53.686;10.094;2023-02-01T04:29:45;100644.03;;;4.02;100.00
19128;BME280;9696;53.686;10.094;2023-02-01T04:32:14;100641.31;;;4.03;100.00
19128;BME280;9696;53.686;10.094;2023-02-01T04:34:43;100621.50;;;4.02;100.00
19128;BME280;9696;53.686;10.094;2023-02-01T04:37:12;100612.25;;;3.98;100.00
19128;BME280;9696;53.686;10.094;2023-02-01T04:39:41;100608.91;;;3.96;100.00
19128;BME280;9696;53.686;10.094;2023-02-01T04:42:13;100615.56;;;4.00;100.00
19128;BME280;9696;53.686;10.094;2023-02-01T04:44:42;100621.50;;;4.02;100.00
19128;BME280;9696;53.686;10.094;2023-02-01T04:47:11;100617.03;;;4.04;100.00
19128;BME280;9696;53.686;10.094;2023-02-01T04:49:40;100621.22;;;4.07;100.00
19128;BME280;9696;53.686;10.094;2023-02-01T04:52:09;100614.09;;;4.10;100.00
19128;BME280;9696;53.686;10.094;2023-02-01T04:54:38;100624.28;;;4.13;100.00
19128;BME280;9696;53.686;10.094;2023-02-01T04:57:07;100626.22;;;4.10;100.00
19128;BME280;9696;53.686;10.094;2023-02-01T04:59:38;100619.28;;;4.10;100.00
19128;BME280;9696;53.686;10.094;2023-02-01T05:02:07;100642.53;;;3.98;100.00
19128;BME280;9696;53.686;10.094;2023-02-01T05:04:37;100631.53;;;3.94;100.00
19128;BME280;9696;53.686;10.094;2023-02-01T05:07:06;100616.03;;;3.93;100.00
19128;BME280;9696;53.686;10.094;2023-02-01T05:09:35;100618.72;;;3.91;100.00
19128;BME280;9696;53.686;10.094;2023-02-01T05:12:04;100626.69;;;3.88;100.00
19128;BME280;9696;53.686;10.094;2023-02-01T05:14:52;100610.13;;;3.91;100.00
19128;BME280;9696;53.686;10.094;2023-02-01T05:17:21;100616.88;;;3.93;100.00
19128;BME280;9696;53.686;10.094;2023-02-01T05:19:51;100607.34;;;3.94;100.00
19128;BME280;9696;53.686;10.094;2023-02-01T05:22:20;100612.78;;;3.89;100.00
19128;BME280;9696;53.686;10.094;2023-02-01T05:24:49;100601.59;;;3.89;100.00
19128;BME280;9696;53.686;10.094;2023-02-01T05:27:18;100594.06;;;3.84;100.00
19128;BME280;9696;53.686;10.094;2023-02-01T05:29:47;100590.19;;;3.77;100.00
19128;BME280;9696;53.686;10.094;2023-02-01T05:32:17;100596.56;;;3.71;100.00
19128;BME280;9696;53.686;10.094;2023-02-01T05:34:49;100585.66;;;3.66;100.00
19128;BME280;9696;53.686;10.094;2023-02-01T05:37:18;100601.31;;;3.65;100.00
19128;BME280;9696;53.686;10.094;2023-02-01T05:39:47;100611.28;;;3.57;100.00
19128;BME280;9696;53.686;10.094;2023-02-01T05:42:17;100632.31;;;3.52;100.00
19128;BME280;9696;53.686;10.094;2023-02-01T05:44:46;100623.69;;;3.38;100.00
19128;BME280;9696;53.686;10.094;2023-02-01T05:47:16;100608.50;;;3.31;100.00
19128;BME280;9696;53.686;10.094;2023-02-01T05:49:45;100628.44;;;3.15;100.00
19128;BME280;9696;53.686;10.094;2023-02-01T05:52:14;100631.94;;;3.00;100.00
19128;BME280;9696;53.686;10.094;2023-02-01T05:54:47;100640.88;;;2.95;100.00
19128;BME280;9696;53.686;10.094;2023-02-01T05:57:16;100643.28;;;2.98;100.00
19128;BME280;9696;53.686;10.094;2023-02-01T05:59:45;100639.38;;;2.91;100.00
19128;BME280;9696;53.686;10.094;2023-02-01T06:02:16;100638.19;;;2.96;100.00
19128;BME280;9696;53.686;10.094;2023-02-01T06:04:46;100639.50;;;3.03;100.00
19128;BME280;9696;53.686;10.094;2023-02-01T06:07:15;100638.94;;;2.98;100.00
19128;BME280;9696;53.686;10.094;2023-02-01T06:09:44;100637.84;;;3.02;100.00
19128;BME280;9696;53.686;10.094;2023-02-01T06:12:14;100635.06;;;3.05;100.00
19128;BME280;9696;53.686;10.094;2023-02-01T06:14:43;100632.06;;;2.97;100.00
19128;BME280;9696;53.686;10.094;2023-02-01T06:17:13;100622.06;;;2.91;100.00
19128;BME280;9696;53.686;10.094;2023-02-01T06:19:43;100611.53;;;2.94;100.00
19128;BME280;9696;53.686;10.094;2023-02-01T06:22:12;100615.97;;;2.92;100.00
19128;BME280;9696;53.686;10.094;2023-02-01T06:24:42;100618.81;;;2.88;100.00
19128;BME280;9696;53.686;10.094;2023-02-01T06:27:11;100627.44;;;2.88;100.00
19128;BME280;9696;53.686;10.094;2023-02-01T06:29:41;100616.38;;;2.84;100.00
19128;BME280;9696;53.686;10.094;2023-02-01T06:32:11;100621.41;;;2.88;100.00
19128;BME280;9696;53.686;10.094;2023-02-01T06:34:40;100618.97;;;2.84;100.00
19128;BME280;9696;53.686;10.094;2023-02-01T06:37:12;100612.69;;;2.89;100.00
19128;BME280;9696;53.686;10.094;2023-02-01T06:39:42;100615.47;;;2.85;100.00
19128;BME280;9696;53.686;10.094;2023-02-01T06:42:12;100620.56;;;2.87;100.00
19128;BME280;9696;53.686;10.094;2023-02-01T06:44:42;100609.63;;;2.82;100.00
19128;BME280;9696;53.686;10.094;2023-02-01T06:47:12;100606.72;;;2.88;100.00
19128;BME280;9696;53.686;10.094;2023-02-01T06:49:42;100624.75;;;2.90;100.00
19128;BME280;9696;53.686;10.094;2023-02-01T06:52:13;100614.50;;;2.88;100.00
19128;BME280;9696;53.686;10.094;2023-02-01T06:54:43;100603.19;;;2.89;100.00
19128;BME280;9696;53.686;10.094;2023-02-01T06:57:13;100608.22;;;2.92;100.00
19128;BME280;9696;53.686;10.094;2023-02-01T06:59:43;100605.91;;;3.02;100.00
19128;BME280;9696;53.686;10.094;2023-02-01T07:02:12;100613.44;;;3.06;100.00
19128;BME280;9696;53.686;10.094;2023-02-01T07:04:41;100608.72;;;3.13;100.00
19128;BME280;9696;53.686;10.094;2023-02-01T07:07:11;100602.63;;;3.14;100.00
19128;BME280;9696;53.686;10.094;2023-02-01T07:09:41;100605.59;;;3.22;100.00
19128;BME280;9696;53.686;10.094;2023-02-01T07:12:10;100611.44;;;3.25;100.00
19128;BME280;9696;53.686;10.094;2023-02-01T07:14:39;100613.69;;;3.31;100.00
19128;BME280;9696;53.686;10.094;2023-02-01T07:17:08;100616.94;;;3.35;100.00
19128;BME280;9696;53.686;10.094;2023-02-01T07:19:37;100618.41;;;3.39;100.00
19128;BME280;9696;53.686;10.094;2023-02-01T07:22:06;100615.19;;;3.50;100.00
19128;BME280;9696;53.686;10.094;2023-02-01T07:24:37;100617.13;;;3.60;100.00
19128;BME280;9696;53.686;10.094;2023-02-01T07:27:06;100618.16;;;3.72;100.00
19128;BME280;9696;53.686;10.094;2023-02-01T07:29:35;100621.13;;;3.80;100.00
19128;BME280;9696;53.686;10.094;2023-02-01T07:32:04;100602.81;;;3.83;100.00
19128;BME280;9696;53.686;10.094;2023-02-01T07:34:34;100601.31;;;3.93;100.00
19128;BME280;9696;53.686;10.094;2023-02-01T07:37:03;100605.81;;;4.04;100.00
19128;BME280;9696;53.686;10.094;2023-02-01T07:39:32;100609.81;;;4.09;100.00
19128;BME280;9696;53.686;10.094;2023-02-01T07:42:02;100595.31;;;4.34;100.00
19128;BME280;9696;53.686;10.094;2023-02-01T07:44:31;100602.47;;;4.30;100.00
19128;BME280;9696;53.686;10.094;2023-02-01T07:47:01;100609.09;;;4.48;100.00
19128;BME280;9696;53.686;10.094;2023-02-01T07:49:30;100604.44;;;4.53;100.00
19128;BME280;9696;53.686;10.094;2023-02-01T07:51:59;100606.94;;;4.55;100.00
19128;BME280;9696;53.686;10.094;2023-02-01T07:54:28;100606.75;;;4.58;100.00
19128;BME280;9696;53.686;10.094;2023-02-01T07:56:57;100611.63;;;4.62;100.00
19128;BME280;9696;53.686;10.094;2023-02-01T07:59:28;100612.94;;;4.69;100.00
19128;BME280;9696;53.686;10.094;2023-02-01T08:01:57;100609.00;;;4.77;100.00
19128;BME280;9696;53.686;10.094;2023-02-01T08:04:25;100617.63;;;4.77;100.00
19128;BME280;9696;53.686;10.094;2023-02-01T08:06:56;100617.34;;;4.82;100.00
19128;BME280;9696;53.686;10.094;2023-02-01T08:09:26;100619.94;;;4.82;100.00
19128;BME280;9696;53.686;10.094;2023-02-01T08:11:55;100631.88;;;4.84;100.00
19128;BME280;9696;53.686;10.094;2023-02-01T08:14:24;100638.00;;;4.83;100.00
19128;BME280;9696;53.686;10.094;2023-02-01T08:16:54;100643.41;;;4.80;100.00
19128;BME280;9696;53.686;10.094;2023-02-01T08:19:23;100650.00;;;4.86;100.00
19128;BME280;9696;53.686;10.094;2023-02-01T08:21:52;100652.94;;;4.94;100.00
19128;BME280;9696;53.686;10.094;2023-02-01T08:24:21;100646.41;;;5.01;100.00
19128;BME280;9696;53.686;10.094;2023-02-01T08:26:50;100657.97;;;5.09;100.00
19128;BME280;9696;53.686;10.094;2023-02-01T08:29:19;100650.97;;;5.10;100.00
19128;BME280;9696;53.686;10.094;2023-02-01T08:31:49;100644.97;;;5.09;100.00
19128;BME280;9696;53.686;10.094;2023-02-01T08:34:20;100645.41;;;5.16;100.00
19128;BME280;9696;53.686;10.094;2023-02-01T08:36:49;100640.81;;;5.19;100.00
19128;BME280;9696;53.686;10.094;2023-02-01T08:39:19;100638.66;;;5.26;100.00
19128;BME280;9696;53.686;10.094;2023-02-01T08:41:48;100626.47;;;5.27;100.00
19128;BME280;9696;53.686;10.094;2023-02-01T08:44:37;100636.25;;;5.23;100.00
19128;BME280;9696;53.686;10.094;2023-02-01T08:47:07;100647.69;;;5.20;100.00
19128;BME280;9696;53.686;10.094;2023-02-01T08:49:37;100634.13;;;5.03;100.00
19128;BME280;9696;53.686;10.094;2023-02-01T08:52:07;100640.03;;;4.92;100.00
19128;BME280;9696;53.686;10.094;2023-02-01T08:54:43;100632.31;;;4.91;100.00
19128;BME280;9696;53.686;10.094;2023-02-01T08:57:12;100629.00;;;4.89;100.00
19128;BME280;9696;53.686;10.094;2023-02-01T08:59:41;100626.00;;;4.95;100.00
19128;BME280;9696;53.686;10.094;2023-02-01T09:02:13;100618.16;;;5.21;100.00
19128;BME280;9696;53.686;10.094;2023-02-01T09:04:44;100613.81;;;5.35;100.00
19128;BME280;9696;53.686;10.094;2023-02-01T09:07:13;100592.28;;;5.33;100.00
19128;BME280;9696;53.686;10.094;2023-02-01T09:09:43;100593.63;;;5.51;100.00
19128;BME280;9696;53.686;10.094;2023-02-01T09:12:12;100592.09;;;5.48;100.00
19128;BME280;9696;53.686;10.094;2023-02-01T09:14:41;100589.16;;;5.40;100.00
19128;BME280;9696;53.686;10.094;2023-02-01T09:17:10;100581.13;;;5.31;100.00
19128;BME280;9696;53.686;10.094;2023-02-01T09:19:42;100578.66;;;5.29;100.00
19128;BME280;9696;53.686;10.094;2023-02-01T09:22:11;100602.53;;;5.21;100.00
19128;BME280;9696;53.686;10.094;2023-02-01T09:24:40;100610.84;;;5.01;100.00
19128;BME280;9696;53.686;10.094;2023-02-01T09:27:11;100614.25;;;5.02;100.00
19128;BME280;9696;53.686;10.094;2023-02-01T09:29:40;100614.59;;;4.97;100.00
19128;BME280;9696;53.686;10.094;2023-02-01T09:32:09;100630.63;;;5.16;100.00
19128;BME280;9696;53.686;10.094;2023-02-01T09:34:38;100606.72;;;5.24;100.00
19128;BME280;9696;53.686;10.094;2023-02-01T09:37:09;100618.91;;;5.36;100.00
19128;BME280;9696;53.686;10.094;2023-02-01T09:39:38;100633.50;;;5.64;100.00
19128;BME280;9696;53.686;10.094;2023-02-01T09:42:18;100618.66;;;5.91;100.00
19128;BME280;9696;53.686;10.094;2023-02-01T09:47:49;100610.28;;;5.74;100.00
19128;BME280;9696;53.686;10.094;2023-02-01T09:50:22;100616.00;;;5.79;100.00
19128;BME280;9696;53.686;10.094;2023-02-01T09:52:59;100615.59;;;5.72;100.00
19128;BME280;9696;53.686;10.094;2023-02-01T09:55:35;100610.72;;;5.80;100.00
19128;BME280;9696;53.686;10.094;2023-02-01T09:58:09;100610.63;;;5.94;100.00
19128;BME280;9696;53.686;10.094;2023-02-01T10:00:52;100607.06;;;6.08;100.00
19128;BME280;9696;53.686;10.094;2023-02-01T10:03:24;100618.88;;;6.25;100.00
19128;BME280;9696;53.686;10.094;2023-02-01T10:06:06;100618.06;;;6.24;100.00
19128;BME280;9696;53.686;10.094;2023-02-01T10:09:01;100610.19;;;6.37;100.00
19128;BME280;9696;53.686;10.094;2023-02-01T10:11:41;100615.97;;;6.16;100.00
19128;BME280;9696;53.686;10.094;2023-02-01T10:14:31;100594.97;;;6.07;100.00
19128;BME280;9696;53.686;10.094;2023-02-01T10:17:16;100615.81;;;6.07;100.00
19128;BME280;9696;53.686;10.094;2023-02-01T10:19:56;100613.00;;;5.97;100.00
19128;BME280;9696;53.686;10.094;2023-02-01T10:22:40;100617.91;;;5.89;100.00
19128;BME280;9696;53.686;10.094;2023-02-01T10:25:37;100615.56;;;5.85;100.00
19128;BME280;9696;53.686;10.094;2023-02-01T10:28:14;100588.63;;;5.86;100.00
19128;BME280;9696;53.686;10.094;2023-02-01T10:30:46;100616.63;;;5.82;100.00
19128;BME280;9696;53.686;10.094;2023-02-01T10:33:17;100607.19;;;5.68;100.00
19128;BME280;9696;53.686;10.094;2023-02-01T10:35:50;100618.06;;;5.61;100.00
19128;BME280;9696;53.686;10.094;2023-02-01T10:38:26;100602.50;;;5.48;100.00
19128;BME280;9696;53.686;10.094;2023-02-01T10:41:02;100601.56;;;5.37;100.00
19128;BME280;9696;53.686;10.094;2023-02-01T10:43:32;100592.81;;;5.50;100.00
19128;BME280;9696;53.686;10.094;2023-02-01T10:46:01;100586.47;;;5.54;100.00
19128;BME280;9696;53.686;10.094;2023-02-01T10:48:31;100567.84;;;5.60;100.00
19128;BME280;9696;53.686;10.094;2023-02-01T10:51:05;100568.34;;;5.65;100.00
19128;BME280;9696;53.686;10.094;2023-02-01T10:53:37;100567.50;;;5.65;100.00
19128;BME280;9696;53.686;10.094;2023-02-01T10:56:13;100554.69;;;5.75;100.00
19128;BME280;9696;53.686;10.094;2023-02-01T10:58:47;100552.72;;;5.65;100.00
19128;BME280;9696;53.686;10.094;2023-02-01T11:01:19;100548.13;;;5.69;100.00
19128;BME280;9696;53.686;10.094;2023-02-01T11:03:53;100545.22;;;5.74;100.00
19128;BME280;9696;53.686;10.094;2023-02-01T11:06:27;100540.53;;;5.79;100.00
19128;BME280;9696;53.686;10.094;2023-02-01T11:08:59;100534.50;;;5.78;100.00
19128;BME280;9696;53.686;10.094;2023-02-01T11:11:30;100522.41;;;5.77;100.00
19128;BME280;9696;53.686;10.094;2023-02-01T11:14:13;100524.31;;;5.75;100.00
19128;BME280;9696;53.686;10.094;2023-02-01T11:16:48;100534.50;;;5.78;100.00
19128;BME280;9696;53.686;10.094;2023-02-01T11:19:18;100531.19;;;5.76;100.00
19128;BME280;9696;53.686;10.094;2023-02-01T11:21:49;100534.72;;;5.75;100.00
19128;BME280;9696;53.686;10.094;2023-02-01T11:24:23;100526.38;;;5.70;100.00
19128;BME280;9696;53.686;10.094;2023-02-01T11:26:57;100516.91;;;5.69;100.00
19128;BME280;9696;53.686;10.094;2023-02-01T11:29:31;100501.53;;;5.66;100.00
19128;BME280;9696;53.686;10.094;2023-02-01T11:32:04;100504.72;;;5.82;100.00
19128;BME280;9696;53.686;10.094;2023-02-01T11:34:37;100488.59;;;5.77;100.00
19128;BME280;9696;53.686;10.094;2023-02-01T11:37:18;100486.41;;;5.84;100.00
19128;BME280;9696;53.686;10.094;2023-02-01T11:39:54;100482.13;;;5.95;100.00
19128;BME280;9696;53.686;10.094;2023-02-01T11:42:26;100482.13;;;5.83;100.00
19128;BME280;9696;53.686;10.094;2023-02-01T11:45:18;100481.19;;;5.84;100.00
19128;BME280;9696;53.686;10.094;2023-02-01T11:47:52;100482.22;;;5.94;100.00
19128;BME280;9696;53.686;10.094;2023-02-01T11:50:29;100479.75;;;5.92;100.00
19128;BME280;9696;53.686;10.094;2023-02-01T11:53:09;100470.78;;;5.84;100.00
19128;BME280;9696;53.686;10.094;2023-02-01T11:55:56;100469.81;;;5.85;100.00
19128;BME280;9696;53.686;10.094;2023-02-01T11:58:55;100475.03;;;5.85;100.00
19128;BME280;9696;53.686;10.094;2023-02-01T12:01:48;100469.94;;;5.83;100.00
19128;BME280;9696;53.686;10.094;2023-02-01T12:04:53;100464.13;;;5.80;100.00
19128;BME280;9696;53.686;10.094;2023-02-01T12:07:36;100463.41;;;5.78;100.00
19128;BME280;9696;53.686;10.094;2023-02-01T12:10:20;100467.91;;;5.63;100.00
19128;BME280;9696;53.686;10.094;2023-02-01T12:13:01;100439.19;;;5.64;100.00
19128;BME280;9696;53.686;10.094;2023-02-01T12:15:46;100461.03;;;5.62;100.00
19128;BME280;9696;53.686;10.094;2023-02-01T12:18:39;100456.69;;;5.50;100.00
19128;BME280;9696;53.686;10.094;2023-02-01T12:21:23;100460.59;;;5.32;100.00
19128;BME280;9696;53.686;10.094;2023-02-01T12:24:21;100465.59;;;5.09;100.00
19128;BME280;9696;53.686;10.094;2023-02-01T12:27:00;100463.63;;;5.13;100.00
19128;BME280;9696;53.686;10.094;2023-02-01T12:29:53;100439.72;;;5.08;100.00
19128;BME280;9696;53.686;10.094;2023-02-01T12:32:42;100471.75;;;5.08;100.00
19128;BME280;9696;53.686;10.094;2023-02-01T12:35:20;100451.34;;;5.02;100.00
19128;BME280;9696;53.686;10.094;2023-02-01T12:38:12;100486.91;;;4.89;100.00
19128;BME280;9696;53.686;10.094;2023-02-01T12:40:54;100489.47;;;4.64;100.00
19128;BME280;9696;53.686;10.094;2023-02-01T12:43:36;100493.28;;;4.58;100.00
19128;BME280;9696;53.686;10.094;2023-02-01T12:46:12;100497.41;;;4.48;100.00
19128;BME280;9696;53.686;10.094;2023-02-01T12:48:52;100482.47;;;4.52;100.00
19128;BME280;9696;53.686;10.094;2023-02-01T12:51:26;100500.31;;;4.44;100.00
19128;BME280;9696;53.686;10.094;2023-02-01T12:54:00;100489.09;;;4.43;100.00
19128;BME280;9696;53.686;10.094;2023-02-01T12:56:34;100485.72;;;4.28;100.00
19128;BME280;9696;53.686;10.094;2023-02-01T12:59:14;100510.22;;;4.24;100.00
19128;BME280;9696;53.686;10.094;2023-02-01T13:01:48;100495.84;;;4.19;100.00
19128;BME280;9696;53.686;10.094;2023-02-01T13:04:27;100495.34;;;4.14;100.00
19128;BME280;9696;53.686;10.094;2023-02-01T13:07:05;100482.25;;;4.15;100.00
19128;BME280;9696;53.686;10.094;2023-02-01T13:09:41;100486.59;;;4.15;100.00
19128;BME280;9696;53.686;10.094;2023-02-01T13:12:15;100482.25;;;4.15;100.00
19128;BME280;9696;53.686;10.094;2023-02-01T13:14:49;100472.13;;;4.25;100.00
19128;BME280;9696;53.686;10.094;2023-02-01T13:17:23;100473.03;;;4.24;100.00
19128;BME280;9696;53.686;10.094;2023-02-01T13:19:57;100462.91;;;4.34;100.00
19128;BME280;9696;53.686;10.094;2023-02-01T13:22:30;100469.00;;;4.72;100.00
19128;BME280;9696;53.686;10.094;2023-02-01T13:25:02;100471.50;;;4.73;100.00
19128;BME280;9696;53.686;10.094;2023-02-01T13:27:36;100462.34;;;4.68;100.00
19128;BME280;9696;53.686;10.094;2023-02-01T13:30:11;100469.41;;;4.79;100.00